Time;durP1;ratioP1;P1;durP2;ratioP2;P2;SDS_P1;SDS_P2;PMS_P1;PMS_P2;Temp;Humidity;BMP_temperature;BMP_pressure;BME280_temperature;BME280_humidity;BME280_pressure;Samples;Min_cycle;Max_cycle;Signal;HPM_P1;HPM_P2
2023/07/02 00:01:11;;;;;;;10.70;2.70;;;16.70;99.90;;;;;;5027371;28;20460;-72
2023/07/02 00:03:40;;;;;;;5.57;2.53;;;16.70;99.90;;;;;;5028256;28;20216;-70
2023/07/02 00:06:06;;;;;;;7.50;2.20;;;16.80;99.90;;;;;;5035543;28;20041;-71
2023/07/02 00:08:32;;;;;;;6.45;1.98;;;16.80;99.90;;;;;;5008768;28;20029;-71
2023/07/02 00:10:57;;;;;;;9.43;2.10;;;16.80;99.90;;;;;;5011830;28;20440;-71
2023/07/02 00:13:23;;;;;;;5.90;2.15;;;16.70;99.90;;;;;;5012987;28;20281;-71
2023/07/02 00:15:48;;;;;;;7.78;2.08;;;16.80;99.90;;;;;;5030856;28;20075;-72
2023/07/02 00:18:17;;;;;;;6.97;2.53;;;16.80;99.90;;;;;;5031216;28;20409;-71
2023/07/02 00:20:43;;;;;;;6.80;2.53;;;16.80;99.90;;;;;;5012610;28;20731;-71
2023/07/02 00:23:09;;;;;;;6.38;2.10;;;16.80;99.90;;;;;;5031357;28;20045;-71
2023/07/02 00:25:36;;;;;;;8.15;2.90;;;16.70;99.90;;;;;;5031150;28;20029;-72
2023/07/02 00:28:02;;;;;;;6.45;2.05;;;16.70;99.90;;;;;;5013135;28;20696;-72
2023/07/02 00:30:27;;;;;;;6.63;2.17;;;16.70;99.90;;;;;;5012993;28;20030;-72
2023/07/02 00:32:53;;;;;;;5.50;1.70;;;16.60;99.90;;;;;;5012725;28;20068;-72
2023/07/02 00:35:18;;;;;;;9.52;2.42;;;16.60;99.90;;;;;;5013111;28;20135;-72
2023/07/02 00:37:44;;;;;;;6.72;2.47;;;16.50;99.90;;;;;;5012640;28;20041;-72
2023/07/02 00:40:10;;;;;;;10.38;2.63;;;16.50;99.90;;;;;;5031376;28;20059;-72
2023/07/02 00:42:36;;;;;;;8.02;1.98;;;16.40;99.90;;;;;;5012162;28;20052;-71
2023/07/02 00:45:04;;;;;;;14.35;3.10;;;16.30;99.90;;;;;;5012592;28;20033;-72
2023/07/02 00:47:34;;;;;;;9.20;2.72;;;16.30;99.90;;;;;;5030567;28;20034;-72
2023/07/02 00:50:01;;;;;;;9.85;2.80;;;16.10;99.90;;;;;;5030253;28;20111;-71
2023/07/02 00:52:27;;;;;;;12.05;3.58;;;16.10;99.90;;;;;;5029958;28;20029;-72
2023/07/02 00:54:52;;;;;;;12.50;2.70;;;15.90;99.90;;;;;;5030226;28;20087;-72
2023/07/02 00:57:18;;;;;;;13.40;3.15;;;15.90;99.90;;;;;;5029974;28;20189;-71
2023/07/02 00:59:44;;;;;;;11.23;2.40;;;15.90;99.90;;;;;;5012068;28;20041;-72
2023/07/02 01:02:10;;;;;;;12.55;2.85;;;15.90;99.90;;;;;;5030534;28;20371;-71
2023/07/02 01:04:37;;;;;;;8.23;2.80;;;15.90;99.90;;;;;;5013931;28;20496;-71
2023/07/02 01:07:08;;;;;;;7.35;2.20;;;15.90;99.90;;;;;;5011875;28;20036;-70
2023/07/02 01:09:34;;;;;;;9.27;3.15;;;15.80;99.90;;;;;;5012056;28;20032;-71
2023/07/02 01:12:02;;;;;;;9.63;2.72;;;15.70;99.90;;;;;;5029910;28;20030;-72
2023/07/02 01:14:33;;;;;;;7.60;2.15;;;15.70;99.90;;;;;;5029837;28;20032;-71
2023/07/02 01:17:00;;;;;;;7.25;2.33;;;15.60;99.90;;;;;;5012364;28;20507;-70
2023/07/02 01:19:40;;;;;;;8.43;2.08;;;15.50;99.90;;;;;;5011609;28;20044;-73
2023/07/02 01:22:06;;;;;;;8.88;2.58;;;15.50;99.90;;;;;;5010988;28;20034;-70
2023/07/02 01:24:32;;;;;;;9.40;2.92;;;15.40;99.90;;;;;;5011651;28;20079;-70
2023/07/02 01:27:01;;;;;;;12.85;2.78;;;15.40;99.90;;;;;;5011862;28;20049;-71
2023/07/02 01:29:30;;;;;;;8.57;2.50;;;15.30;99.90;;;;;;5011780;28;20030;-71
2023/07/02 01:31:55;;;;;;;14.27;3.50;;;15.30;99.90;;;;;;5011160;28;20040;-72
2023/07/02 01:34:21;;;;;;;9.80;2.80;;;15.20;99.90;;;;;;5029212;28;20045;-71
2023/07/02 01:36:47;;;;;;;7.93;2.72;;;15.20;99.90;;;;;;5011885;28;20110;-71
2023/07/02 01:39:12;;;;;;;8.50;3.13;;;15.10;99.90;;;;;;5029672;28;20045;-71
2023/07/02 01:41:45;;;;;;;14.32;2.75;;;15.10;99.90;;;;;;5010919;28;20121;-72
2023/07/02 01:44:10;;;;;;;9.85;2.92;;;15.00;99.90;;;;;;5029449;28;20148;-71
2023/07/02 01:46:36;;;;;;;8.98;2.92;;;15.00;99.90;;;;;;5011687;28;20132;-71
2023/07/02 01:49:02;;;;;;;13.57;3.00;;;15.00;99.90;;;;;;5028610;28;20030;-72
2023/07/02 01:51:27;;;;;;;14.93;3.85;;;14.90;99.90;;;;;;5011278;28;20033;-73
2023/07/02 01:53:53;;;;;;;10.55;2.95;;;14.90;99.90;;;;;;5011085;28;20666;-71
2023/07/02 01:56:19;;;;;;;12.45;2.78;;;14.80;99.90;;;;;;5011388;28;20425;-72
2023/07/02 01:58:44;;;;;;;11.95;3.58;;;14.80;99.90;;;;;;5010792;28;20371;-71
2023/07/02 02:01:10;;;;;;;14.82;3.75;;;14.70;99.90;;;;;;5011191;28;20064;-71
2023/07/02 02:03:35;;;;;;;11.57;2.88;;;14.70;99.90;;;;;;5029965;28;20140;-71
2023/07/02 02:06:01;;;;;;;8.93;2.80;;;14.70;99.90;;;;;;5048784;28;20033;-73
2023/07/02 02:08:27;;;;;;;9.18;2.90;;;14.60;99.90;;;;;;5030885;28;20048;-71
2023/07/02 02:10:52;;;;;;;8.43;3.33;;;14.60;99.90;;;;;;5042094;28;20041;-71
2023/07/02 02:13:18;;;;;;;11.88;2.97;;;14.50;99.90;;;;;;5011241;28;20502;-71
2023/07/02 02:15:43;;;;;;;10.50;2.90;;;14.50;99.90;;;;;;5028358;28;20033;-71
2023/07/02 02:18:09;;;;;;;13.18;3.15;;;14.40;99.90;;;;;;5029304;28;20037;-71
2023/07/02 02:20:34;;;;;;;10.20;3.00;;;14.40;99.90;;;;;;5028431;28;20022;-71
2023/07/02 02:23:00;;;;;;;6.43;2.90;;;14.40;99.90;;;;;;5010574;28;20041;-71
2023/07/02 02:25:25;;;;;;;9.82;3.03;;;14.30;99.90;;;;;;5010690;28;20032;-72
2023/07/02 02:27:51;;;;;;;10.93;3.70;;;14.30;99.90;;;;;;5028582;28;20406;-72
2023/07/02 02:30:17;;;;;;;15.55;3.42;;;14.30;99.90;;;;;;5028755;28;20504;-71
2023/07/02 02:32:42;;;;;;;12.32;3.42;;;14.20;99.90;;;;;;5027297;28;20433;-72
2023/07/02 02:35:08;;;;;;;11.70;2.78;;;14.20;99.90;;;;;;5010912;28;20049;-72
2023/07/02 02:37:39;;;;;;;11.57;3.08;;;14.20;99.90;;;;;;5028379;28;20060;-72
2023/07/02 02:40:06;;;;;;;10.98;3.10;;;14.20;99.90;;;;;;5003224;28;20038;-72
2023/07/02 02:42:32;;;;;;;15.50;3.58;;;14.20;99.90;;;;;;5009892;28;20433;-71
2023/07/02 02:44:57;;;;;;;12.13;3.20;;;14.10;99.90;;;;;;5010005;28;20041;-72
2023/07/02 02:47:23;;;;;;;11.65;3.75;;;14.10;99.90;;;;;;5010573;28;20034;-72
2023/07/02 02:49:48;;;;;;;13.48;3.40;;;14.10;99.90;;;;;;5010439;28;20034;-71
2023/07/02 02:52:15;;;;;;;12.95;2.55;;;14.10;99.90;;;;;;5010737;28;20025;-72
2023/07/02 02:54:40;;;;;;;14.65;3.58;;;14.10;99.90;;;;;;5027806;28;20037;-71
2023/07/02 02:57:06;;;;;;;10.82;3.60;;;14.10;99.90;;;;;;5029495;28;20441;-71
2023/07/02 02:59:32;;;;;;;15.18;3.63;;;14.10;99.90;;;;;;5028987;28;20152;-72
2023/07/02 03:01:57;;;;;;;14.57;2.88;;;14.00;99.90;;;;;;5028923;28;20040;-72
2023/07/02 03:04:23;;;;;;;17.10;3.03;;;14.00;99.90;;;;;;5011365;28;20033;-71
2023/07/02 03:06:49;;;;;;;13.07;3.75;;;14.10;99.90;;;;;;5028401;28;20068;-73
2023/07/02 03:09:15;;;;;;;9.85;3.30;;;14.00;99.90;;;;;;5010368;28;20389;-72
2023/07/02 03:11:40;;;;;;;13.18;3.63;;;14.00;99.90;;;;;;5027364;28;20045;-71
2023/07/02 03:14:06;;;;;;;14.70;3.03;;;14.00;99.90;;;;;;5027893;28;20498;-72
2023/07/02 03:16:33;;;;;;;15.85;3.90;;;14.00;99.90;;;;;;5010193;28;20077;-71
2023/07/02 03:18:59;;;;;;;11.90;4.10;;;14.00;99.90;;;;;;5009762;28;20041;-72
2023/07/02 03:21:24;;;;;;;10.75;3.17;;;14.00;99.90;;;;;;5010308;28;20026;-70
2023/07/02 03:23:50;;;;;;;13.73;3.35;;;14.00;99.90;;;;;;5027711;28;20747;-71
2023/07/02 03:26:15;;;;;;;11.25;2.95;;;14.00;99.90;;;;;;5028871;28;20037;-72
2023/07/02 03:28:41;;;;;;;10.82;3.00;;;14.00;99.90;;;;;;5012302;28;20560;-72
2023/07/02 03:31:07;;;;;;;16.85;4.25;;;13.90;99.90;;;;;;5028203;28;20045;-71
2023/07/02 03:33:32;;;;;;;12.70;3.47;;;13.90;99.90;;;;;;5027559;28;20034;-70
2023/07/02 03:35:58;;;;;;;16.20;3.55;;;13.90;99.90;;;;;;5027415;28;20055;-71
2023/07/02 03:38:24;;;;;;;13.40;3.17;;;13.90;99.90;;;;;;5010037;28;20037;-71
2023/07/02 03:40:49;;;;;;;12.85;3.97;;;13.90;99.90;;;;;;5027260;28;20038;-72
2023/07/02 03:43:15;;;;;;;13.38;3.38;;;13.90;99.90;;;;;;5009823;28;20033;-72
2023/07/02 03:45:41;;;;;;;12.05;3.97;;;13.90;99.90;;;;;;5008554;28;20042;-71
2023/07/02 03:48:06;;;;;;;12.60;3.17;;;13.90;99.90;;;;;;5010055;28;20128;-72
2023/07/02 03:50:32;;;;;;;10.73;3.40;;;13.80;99.90;;;;;;5009559;28;20072;-72
2023/07/02 03:52:57;;;;;;;21.73;4.95;;;13.80;99.90;;;;;;5009273;28;20489;-72
2023/07/02 03:55:23;;;;;;;13.02;2.92;;;13.80;99.90;;;;;;5027422;28;20065;-72
2023/07/02 03:57:49;;;;;;;11.20;3.13;;;13.80;99.90;;;;;;5009455;28;20401;-70
2023/07/02 04:00:15;;;;;;;18.42;3.17;;;13.80;99.90;;;;;;5009538;28;20048;-73
2023/07/02 04:02:40;;;;;;;17.33;3.85;;;13.90;99.90;;;;;;5009032;28;20048;-72
2023/07/02 04:05:06;;;;;;;12.65;3.95;;;13.90;99.90;;;;;;5014213;28;20048;-72
2023/07/02 04:07:32;;;;;;;14.02;3.10;;;13.80;99.90;;;;;;5009605;28;20034;-70
2023/07/02 04:09:57;;;;;;;15.75;3.63;;;13.80;99.90;;;;;;5026770;28;20037;-72
2023/07/02 04:12:23;;;;;;;17.15;4.40;;;13.90;99.90;;;;;;5009303;28;20112;-73
2023/07/02 04:14:48;;;;;;;16.20;4.10;;;13.90;99.90;;;;;;5009321;28;20034;-71
2023/07/02 04:17:14;;;;;;;14.48;3.72;;;13.90;99.90;;;;;;5027771;28;20045;-71
2023/07/02 04:19:40;;;;;;;15.23;4.47;;;13.90;99.90;;;;;;5008796;28;20033;-72
2023/07/02 04:22:06;;;;;;;15.93;4.05;;;13.90;99.90;;;;;;5027667;28;20101;-71
2023/07/02 04:24:31;;;;;;;16.17;3.65;;;13.90;99.90;;;;;;5027162;28;20049;-71
2023/07/02 04:26:57;;;;;;;13.10;4.22;;;14.00;99.90;;;;;;5009132;28;20048;-71
2023/07/02 04:29:22;;;;;;;7.70;2.88;;;13.90;99.90;;;;;;5026906;28;20196;-70
2023/07/02 04:31:48;;;;;;;12.90;3.20;;;14.00;99.90;;;;;;5009178;28;20033;-72
2023/07/02 04:34:13;;;;;;;14.40;3.80;;;14.00;99.90;;;;;;5009815;28;20029;-72
2023/07/02 04:36:39;;;;;;;15.35;4.07;;;14.10;99.90;;;;;;5026385;28;20060;-72
2023/07/02 04:39:04;;;;;;;13.05;4.70;;;14.10;99.90;;;;;;5009830;28;20088;-72
2023/07/02 04:41:30;;;;;;;22.92;4.28;;;14.10;99.90;;;;;;5008869;28;20108;-71
2023/07/02 04:43:56;;;;;;;14.95;4.10;;;14.10;99.90;;;;;;5026736;28;20026;-71
2023/07/02 04:46:21;;;;;;;11.15;3.10;;;14.10;99.90;;;;;;5026348;28;20025;-71
2023/07/02 04:48:47;;;;;;;10.98;3.03;;;14.20;99.90;;;;;;5009133;28;20413;-71
2023/07/02 04:51:13;;;;;;;16.52;3.85;;;14.20;99.90;;;;;;5027439;28;20102;-71
2023/07/02 04:53:38;;;;;;;13.05;4.05;;;14.30;99.90;;;;;;5026276;28;20535;-72
2023/07/02 04:56:04;;;;;;;21.55;4.07;;;14.30;99.90;;;;;;5010252;28;20060;-72
2023/07/02 04:58:30;;;;;;;14.77;3.35;;;14.30;99.90;;;;;;5012042;28;20161;-73
2023/07/02 05:00:55;;;;;;;14.55;3.20;;;14.40;99.90;;;;;;5029757;28;20116;-71
2023/07/02 05:03:21;;;;;;;13.40;3.80;;;14.40;99.90;;;;;;5029647;28;20034;-71
2023/07/02 05:05:46;;;;;;;14.35;3.28;;;14.40;99.90;;;;;;5015625;28;20061;-70
2023/07/02 05:08:12;;;;;;;21.08;3.95;;;14.50;99.90;;;;;;5012535;28;20037;-72
2023/07/02 05:10:37;;;;;;;13.77;4.10;;;14.50;99.90;;;;;;5011572;28;20033;-74
2023/07/02 05:13:03;;;;;;;17.50;3.65;;;14.50;99.90;;;;;;5029370;28;20120;-71
2023/07/02 05:15:29;;;;;;;13.85;3.42;;;14.50;99.90;;;;;;5011722;28;20088;-72
2023/07/02 05:17:54;;;;;;;13.13;3.58;;;14.60;99.90;;;;;;5035143;28;20037;-71
2023/07/02 05:20:20;;;;;;;11.98;2.72;;;14.70;99.90;;;;;;5012131;28;20083;-72
2023/07/02 05:22:45;;;;;;;12.18;3.45;;;14.70;99.90;;;;;;5012508;28;20056;-71
2023/07/02 05:25:11;;;;;;;16.67;3.30;;;14.70;99.90;;;;;;5012890;28;20083;-72
2023/07/02 05:27:36;;;;;;;14.45;3.15;;;14.80;99.90;;;;;;5012097;28;20060;-72
2023/07/02 05:30:02;;;;;;;12.40;3.22;;;14.80;99.90;;;;;;5029757;28;20021;-71
2023/07/02 05:32:28;;;;;;;13.23;2.75;;;14.90;99.90;;;;;;5029639;28;20037;-73
2023/07/02 05:34:53;;;;;;;11.65;3.13;;;14.90;99.90;;;;;;5012047;28;20025;-72
2023/07/02 05:37:19;;;;;;;12.48;3.42;;;15.10;99.90;;;;;;5012490;28;20033;-71
2023/07/02 05:39:44;;;;;;;19.85;2.97;;;15.10;99.90;;;;;;5011479;28;20183;-71
2023/07/02 05:42:10;;;;;;;9.65;2.67;;;15.20;99.90;;;;;;5029864;28;20037;-72
2023/07/02 05:44:35;;;;;;;9.13;3.17;;;15.40;99.90;;;;;;5030089;28;20049;-72
2023/07/02 05:47:01;;;;;;;10.75;3.00;;;15.50;99.90;;;;;;5029614;28;20030;-71
2023/07/02 05:49:27;;;;;;;11.95;3.25;;;15.70;99.90;;;;;;5011835;28;20041;-72
2023/07/02 05:51:52;;;;;;;13.00;2.40;;;15.80;99.90;;;;;;5011480;28;20049;-72
2023/07/02 05:54:18;;;;;;;11.27;2.90;;;16.10;99.90;;;;;;5011747;28;20033;-71
2023/07/02 05:56:44;;;;;;;7.28;2.38;;;16.40;99.90;;;;;;5010605;28;20033;-72
2023/07/02 05:59:09;;;;;;;10.10;2.20;;;16.90;99.90;;;;;;5011801;28;20087;-71
2023/07/02 06:01:35;;;;;;;10.45;2.97;;;17.50;99.90;;;;;;5011102;28;20053;-70
2023/07/02 06:04:00;;;;;;;10.43;3.13;;;18.00;99.90;;;;;;5034139;28;20033;-71
2023/07/02 06:06:26;;;;;;;9.80;2.70;;;18.50;99.90;;;;;;5049177;28;20021;-72
2023/07/02 06:08:52;;;;;;;8.63;2.53;;;18.80;99.90;;;;;;5035675;28;20091;-71
2023/07/02 06:11:17;;;;;;;13.65;3.15;;;19.00;99.90;;;;;;5029826;28;20029;-72
2023/07/02 06:13:43;;;;;;;7.90;2.53;;;19.00;99.90;;;;;;5011186;28;20486;-71
2023/07/02 06:16:09;;;;;;;10.73;3.08;;;19.00;99.90;;;;;;5012330;28;20041;-71
2023/07/02 06:18:34;;;;;;;14.35;3.05;;;18.90;99.90;;;;;;5011761;28;20049;-71
2023/07/02 06:21:00;;;;;;;11.30;2.60;;;18.70;99.90;;;;;;5029227;28;20077;-73
2023/07/02 06:23:25;;;;;;;8.15;2.58;;;18.70;99.90;;;;;;5014066;28;20033;-72
2023/07/02 06:25:58;;;;;;;9.98;2.53;;;18.70;99.90;;;;;;5032925;28;20812;-71
2023/07/02 06:28:25;;;;;;;12.43;2.53;;;18.70;99.90;;;;;;5001139;28;20084;-72
2023/07/02 06:30:51;;;;;;;9.48;2.10;;;18.70;99.90;;;;;;5029351;28;20048;-73
2023/07/02 06:33:16;;;;;;;8.27;2.47;;;18.80;99.90;;;;;;5028799;28;20030;-72
2023/07/02 06:35:42;;;;;;;11.93;2.85;;;18.90;99.90;;;;;;5027918;28;20072;-72
2023/07/02 06:38:07;;;;;;;11.10;2.67;;;19.10;99.90;;;;;;5028345;28;20057;-71
2023/07/02 06:40:34;;;;;;;12.05;3.22;;;19.10;99.90;;;;;;5010825;28;20044;-72
2023/07/02 06:42:59;;;;;;;14.63;2.75;;;19.00;99.90;;;;;;5028166;28;20046;-72
2023/07/02 06:45:25;;;;;;;9.75;2.63;;;19.00;99.90;;;;;;5028456;28;20025;-71
2023/07/02 06:47:50;;;;;;;6.78;2.05;;;19.10;99.90;;;;;;5028252;28;20498;-72
2023/07/02 06:50:16;;;;;;;7.60;2.08;;;19.30;99.90;;;;;;5029197;28;20445;-71
2023/07/02 06:52:42;;;;;;;10.77;2.85;;;19.40;99.90;;;;;;5001421;28;20820;-72
2023/07/02 06:55:07;;;;;;;9.35;2.28;;;19.70;99.90;;;;;;5028883;28;20626;-71
2023/07/02 06:57:33;;;;;;;8.30;2.00;;;20.10;99.90;;;;;;5010427;28;20407;-70
2023/07/02 06:59:59;;;;;;;9.30;2.40;;;20.30;99.90;;;;;;5010364;28;20041;-71
2023/07/02 07:02:26;;;;;;;7.80;2.10;;;20.50;99.90;;;;;;5010096;28;20398;-71
2023/07/02 07:04:51;;;;;;;7.13;2.75;;;20.60;99.90;;;;;;5039527;28;20473;-70
2023/07/02 07:07:17;;;;;;;7.85;2.78;;;20.70;99.90;;;;;;5032150;28;20080;-71
2023/07/02 07:09:42;;;;;;;7.43;2.15;;;20.90;99.50;;;;;;5027577;28;20083;-71
2023/07/02 07:12:08;;;;;;;9.07;2.17;;;21.20;99.90;;;;;;5027903;28;20113;-71
2023/07/02 07:14:33;;;;;;;8.25;2.17;;;21.70;99.20;;;;;;5010114;28;20617;-72
2023/07/02 07:16:59;;;;;;;8.10;2.58;;;22.50;98.50;;;;;;5027903;28;20075;-73
2023/07/02 07:19:25;;;;;;;7.13;1.85;;;23.20;95.40;;;;;;5027185;28;20029;-72
2023/07/02 07:21:50;;;;;;;3.20;1.83;;;24.00;94.40;;;;;;5027538;28;20110;-72
2023/07/02 07:24:16;;;;;;;8.50;2.63;;;24.70;93.80;;;;;;5010299;28;20064;-72
2023/07/02 07:26:41;;;;;;;10.18;2.95;;;25.30;93.90;;;;;;5027206;28;20045;-71
2023/07/02 07:29:07;;;;;;;11.88;3.08;;;26.10;92.50;;;;;;5010298;28;20030;-72
2023/07/02 07:31:32;;;;;;;8.77;2.83;;;27.10;90.40;;;;;;5027169;28;20034;-72
2023/07/02 07:33:58;;;;;;;10.07;3.30;;;27.60;88.80;;;;;;5027231;28;20037;-72
2023/07/02 07:36:23;;;;;;;7.35;3.50;;;28.20;85.30;;;;;;5027300;28;20078;-70
2023/07/02 07:38:49;;;;;;;11.10;3.72;;;28.60;87.40;;;;;;5009869;28;20497;-71
2023/07/02 07:41:14;;;;;;;12.55;3.60;;;29.20;84.70;;;;;;5009913;28;20141;-72
2023/07/02 07:43:40;;;;;;;12.80;4.40;;;29.30;84.00;;;;;;5026714;28;20049;-73
2023/07/02 07:46:06;;;;;;;9.80;4.05;;;29.20;81.80;;;;;;5027742;28;20040;-72
2023/07/02 07:48:31;;;;;;;12.75;4.00;;;28.30;83.00;;;;;;5027023;28;20040;-73
2023/07/02 07:50:57;;;;;;;8.57;3.67;;;28.00;84.30;;;;;;5027095;28;20033;-73
2023/07/02 07:53:22;;;;;;;8.90;3.67;;;28.60;81.90;;;;;;5009587;28;20045;-71
2023/07/02 07:55:48;;;;;;;11.07;4.10;;;29.20;80.20;;;;;;5033784;28;20029;-71
2023/07/02 07:58:13;;;;;;;12.02;4.03;;;29.60;80.70;;;;;;5033942;28;20045;-70
2023/07/02 08:00:39;;;;;;;10.18;3.35;;;30.00;79.90;;;;;;5031913;28;20049;-72
2023/07/02 08:03:04;;;;;;;12.63;4.60;;;30.30;76.40;;;;;;5014606;28;20486;-72
2023/07/02 08:05:31;;;;;;;10.38;4.35;;;30.10;77.40;;;;;;5031398;28;20424;-72
2023/07/02 08:07:57;;;;;;;9.82;4.43;;;29.00;77.30;;;;;;5009985;28;20076;-71
2023/07/02 08:10:24;;;;;;;13.85;4.00;;;28.90;76.20;;;;;;5027526;28;20033;-72
2023/07/02 08:12:52;;;;;;;7.35;3.38;;;28.70;76.20;;;;;;5026672;28;20029;-71
2023/07/02 08:15:17;;;;;;;6.43;2.75;;;28.70;77.00;;;;;;5047240;28;20037;-72
2023/07/02 08:17:43;;;;;;;7.60;2.65;;;28.40;75.10;;;;;;5026462;28;20087;-71
2023/07/02 08:20:10;;;;;;;7.75;2.85;;;28.40;74.00;;;;;;5027431;28;20044;-71
2023/07/02 08:22:39;;;;;;;6.25;2.75;;;28.00;74.90;;;;;;5026999;28;20394;-71
2023/07/02 08:25:06;;;;;;;7.80;2.10;;;27.60;74.90;;;;;;5027323;28;20026;-73
2023/07/02 08:27:32;;;;;;;5.82;1.92;;;26.90;77.50;;;;;;5026812;28;20099;-73
2023/07/02 08:29:57;;;;;;;9.45;2.72;;;26.40;76.40;;;;;;5026576;28;20072;-73
2023/07/02 08:32:23;;;;;;;5.20;1.83;;;25.80;79.80;;;;;;5029907;28;20029;-71
2023/07/02 08:34:50;;;;;;;5.82;2.28;;;25.40;80.30;;;;;;5030031;28;20041;-71
2023/07/02 08:37:16;;;;;;;9.60;2.28;;;25.10;79.60;;;;;;5013213;28;20022;-73
2023/07/02 08:39:41;;;;;;;6.53;1.90;;;24.80;78.60;;;;;;5029989;28;20038;-72
2023/07/02 08:42:07;;;;;;;5.68;1.98;;;24.50;82.60;;;;;;5013243;28;20105;-73
2023/07/02 08:44:33;;;;;;;10.13;1.98;;;24.30;84.80;;;;;;5030517;28;20486;-72
2023/07/02 08:46:59;;;;;;;4.80;1.77;;;24.00;84.00;;;;;;5012584;28;20478;-71
2023/07/02 08:49:25;;;;;;;9.75;2.50;;;23.90;84.20;;;;;;5030075;28;20044;-73
2023/07/02 08:51:50;;;;;;;5.53;1.98;;;23.60;85.60;;;;;;5012439;28;20084;-72
2023/07/02 08:54:19;;;;;;;7.60;1.58;;;23.40;84.40;;;;;;5030543;28;20516;-72
2023/07/02 08:56:46;;;;;;;9.15;1.50;;;23.30;86.20;;;;;;5030079;28;20029;-71
2023/07/02 08:59:12;;;;;;;8.65;1.80;;;23.10;84.50;;;;;;5030625;28;20498;-72
2023/07/02 09:01:48;;;;;;;3.58;1.00;;;22.90;84.50;;;;;;5012290;28;20077;-71
2023/07/02 09:04:21;;;;;;;6.38;1.60;;;22.70;83.80;;;;;;5023438;28;20436;-72
2023/07/02 09:06:48;;;;;;;7.53;1.73;;;22.70;85.00;;;;;;5032034;28;20550;-73
2023/07/02 09:09:14;;;;;;;5.10;1.63;;;22.80;84.00;;;;;;5050385;28;20436;-72
2023/07/02 09:11:50;;;;;;;3.88;1.20;;;22.80;86.00;;;;;;5049616;28;20029;-73
2023/07/02 09:14:29;;;;;;;8.32;1.50;;;22.90;83.80;;;;;;5011317;28;20204;-73
2023/07/02 09:17:09;;;;;;;6.33;1.07;;;22.80;83.90;;;;;;5028443;28;20425;-72
2023/07/02 09:19:35;;;;;;;4.80;1.08;;;22.80;83.50;;;;;;5011939;28;20041;-72
2023/07/02 09:22:02;;;;;;;4.55;1.02;;;22.60;82.10;;;;;;5029773;28;20423;-72
2023/07/02 09:24:30;;;;;;;3.88;1.00;;;22.40;83.40;;;;;;5029903;28;20512;-72
2023/07/02 09:26:57;;;;;;;3.00;1.20;;;22.20;83.40;;;;;;5030929;28;20037;-71
2023/07/02 09:29:26;;;;;;;3.55;1.10;;;22.00;83.00;;;;;;5030598;28;20049;-70
2023/07/02 09:31:52;;;;;;;5.35;1.17;;;21.80;84.80;;;;;;5012615;28;20041;-71
2023/07/02 09:34:17;;;;;;;4.10;1.27;;;21.90;86.20;;;;;;5012201;28;20543;-73
2023/07/02 09:36:44;;;;;;;8.85;1.20;;;22.10;85.50;;;;;;5011656;28;20438;-70
2023/07/02 09:39:14;;;;;;;4.38;0.95;;;22.30;84.80;;;;;;5030037;28;20041;-73
2023/07/02 09:41:44;;;;;;;4.78;1.33;;;22.60;82.90;;;;;;5011223;28;20033;-73
2023/07/02 09:44:10;;;;;;;4.47;1.27;;;22.90;85.10;;;;;;5029156;28;20076;-72
2023/07/02 09:46:41;;;;;;;9.15;1.85;;;23.00;83.90;;;;;;5011798;28;20516;-70
2023/07/02 09:49:13;;;;;;;8.82;1.20;;;23.40;81.30;;;;;;5021615;28;20079;-72
2023/07/02 09:51:40;;;;;;;3.83;1.27;;;23.40;80.50;;;;;;5003436;28;20049;-72
2023/07/02 09:54:06;;;;;;;2.50;1.25;;;23.30;78.50;;;;;;5009393;28;20045;-71
2023/07/02 09:56:31;;;;;;;4.05;1.30;;;23.20;79.80;;;;;;4992289;28;20395;-73
2023/07/02 09:58:57;;;;;;;4.88;1.25;;;23.20;81.50;;;;;;5011818;28;20042;-72
2023/07/02 10:01:23;;;;;;;2.97;0.82;;;23.10;78.80;;;;;;5024801;28;20125;-72
2023/07/02 10:03:48;;;;;;;3.00;0.88;;;23.10;80.10;;;;;;5014435;28;20041;-71
2023/07/02 10:06:14;;;;;;;3.63;1.17;;;22.90;77.40;;;;;;5046404;28;20052;-72
2023/07/02 10:08:39;;;;;;;3.17;0.70;;;22.60;78.60;;;;;;5028783;28;20037;-71
2023/07/02 10:11:15;;;;;;;2.83;1.15;;;22.60;78.50;;;;;;5011417;28;20029;-72
2023/07/02 10:13:41;;;;;;;3.97;1.38;;;22.50;79.30;;;;;;5028258;28;20045;-72
2023/07/02 10:16:07;;;;;;;6.55;0.80;;;22.50;79.20;;;;;;5011250;28;20030;-72
2023/07/02 10:18:33;;;;;;;2.78;0.90;;;22.60;79.40;;;;;;5028861;28;20037;-72
2023/07/02 10:20:58;;;;;;;3.45;1.30;;;22.50;78.80;;;;;;5009082;28;20041;-71
2023/07/02 10:23:35;;;;;;;2.83;1.20;;;22.60;78.90;;;;;;5016120;28;20038;-72
2023/07/02 10:26:16;;;;;;;1.30;0.73;;;22.60;79.00;;;;;;5006208;28;20550;-71
2023/07/02 10:28:42;;;;;;;8.07;1.30;;;22.60;79.90;;;;;;5010387;28;20502;-71
2023/07/02 10:31:21;;;;;;;4.38;1.58;;;22.50;80.50;;;;;;5011030;28;20041;-71
2023/07/02 10:33:47;;;;;;;4.05;1.00;;;22.30;80.00;;;;;;5021275;28;20033;-72
2023/07/02 10:36:20;;;;;;;8.98;1.38;;;22.20;82.00;;;;;;5006083;28;20068;-72
2023/07/02 10:38:47;;;;;;;4.80;1.10;;;22.50;80.00;;;;;;5026513;28;20041;-72
2023/07/02 10:41:22;;;;;;;3.25;1.13;;;22.40;78.60;;;;;;5010784;28;20029;-72
2023/07/02 10:43:47;;;;;;;7.30;1.27;;;22.30;80.60;;;;;;5009655;28;20134;-72
2023/07/02 10:46:19;;;;;;;4.25;1.45;;;22.30;78.40;;;;;;5028019;28;20076;-72
2023/07/02 10:48:55;;;;;;;3.60;1.00;;;22.30;81.10;;;;;;5026904;28;20505;-72
2023/07/02 10:51:21;;;;;;;3.85;1.08;;;22.60;82.80;;;;;;5025120;28;20148;-72
2023/07/02 10:53:59;;;;;;;7.53;1.92;;;22.90;84.40;;;;;;5008564;28;20040;-71
2023/07/02 10:56:29;;;;;;;9.68;1.70;;;23.10;82.10;;;;;;5027582;28;20044;-71
2023/07/02 10:58:55;;;;;;;4.93;1.60;;;22.90;80.20;;;;;;5027295;28;20040;-72
2023/07/02 11:01:29;;;;;;;6.80;1.88;;;22.70;80.10;;;;;;5010157;28;20059;-71
2023/07/02 11:04:02;;;;;;;4.53;1.33;;;22.60;80.50;;;;;;5009236;28;20212;-72
2023/07/02 11:06:28;;;;;;;3.83;1.20;;;22.50;79.80;;;;;;5027353;28;20504;-72
2023/07/02 11:08:57;;;;;;;7.03;1.40;;;22.30;81.10;;;;;;5009599;28;20432;-72
2023/07/02 11:11:23;;;;;;;5.90;1.30;;;22.60;79.20;;;;;;5023653;28;20025;-71
2023/07/02 11:13:50;;;;;;;6.90;1.33;;;22.80;77.40;;;;;;5027247;28;20044;-70
2023/07/02 11:16:28;;;;;;;8.63;1.30;;;23.00;79.10;;;;;;5027765;28;20041;-71
2023/07/02 11:19:05;;;;;;;4.75;1.77;;;23.10;79.20;;;;;;5026623;28;20662;-72
2023/07/02 11:21:31;;;;;;;3.85;1.30;;;23.20;78.40;;;;;;5024232;28;20033;-71
2023/07/02 11:24:10;;;;;;;9.20;1.90;;;23.30;78.20;;;;;;5008983;28;20032;-72
2023/07/02 11:26:39;;;;;;;5.23;1.30;;;23.50;77.30;;;;;;5008080;28;20037;-72
2023/07/02 11:29:10;;;;;;;5.43;1.75;;;23.70;77.00;;;;;;5009102;28;20512;-72
2023/07/02 11:31:36;;;;;;;3.20;1.52;;;23.90;76.30;;;;;;5026451;28;20036;-72
2023/07/02 11:34:14;;;;;;;5.63;1.42;;;23.90;76.20;;;;;;5008234;28;20025;-70
2023/07/02 11:36:40;;;;;;;6.68;1.45;;;23.70;76.40;;;;;;5007818;28;20040;-75
2023/07/02 11:39:06;;;;;;;7.38;1.20;;;23.50;76.80;;;;;;5026632;28;20407;-74
2023/07/02 11:41:39;;;;;;;5.68;1.25;;;23.30;76.90;;;;;;5026409;28;20524;-73
2023/07/02 11:44:06;;;;;;;6.20;1.73;;;23.10;77.30;;;;;;5008257;28;20083;-74
2023/07/02 11:46:31;;;;;;;3.05;1.38;;;23.20;77.40;;;;;;5025158;28;20036;-74
2023/07/02 11:48:57;;;;;;;7.75;1.58;;;23.40;76.90;;;;;;5025992;28;20033;-73
2023/07/02 11:51:22;;;;;;;4.07;1.20;;;23.70;78.40;;;;;;5008246;28;20048;-72
2023/07/02 11:53:48;;;;;;;6.32;1.45;;;24.10;76.60;;;;;;5026061;28;20037;-74
2023/07/02 11:56:14;;;;;;;4.60;1.23;;;24.20;75.60;;;;;;5008654;28;20038;-74
2023/07/02 11:58:40;;;;;;;3.70;1.50;;;24.40;74.10;;;;;;5026064;28;20129;-75
2023/07/02 12:01:06;;;;;;;5.22;1.50;;;24.30;74.40;;;;;;5025697;28;20087;-74
2023/07/02 12:03:31;;;;;;;4.35;1.23;;;24.20;75.20;;;;;;5009100;28;20440;-73
2023/07/02 12:05:57;;;;;;;7.68;2.00;;;24.00;75.20;;;;;;5010313;28;20057;-72
2023/07/02 12:08:23;;;;;;;4.30;1.20;;;24.10;75.50;;;;;;5032106;28;20086;-72
2023/07/02 12:10:48;;;;;;;9.85;1.95;;;24.00;73.90;;;;;;5011360;28;20048;-72
2023/07/02 12:13:14;;;;;;;6.40;1.80;;;23.80;74.10;;;;;;5032813;28;20115;-74
2023/07/02 12:15:40;;;;;;;8.00;1.55;;;23.70;75.90;;;;;;5032571;28;20037;-77
2023/07/02 12:18:06;;;;;;;3.97;1.45;;;23.80;76.50;;;;;;5015158;28;20068;-74
2023/07/02 12:20:31;;;;;;;4.80;1.52;;;23.70;76.00;;;;;;5014619;28;20409;-72
2023/07/02 12:22:57;;;;;;;4.03;1.52;;;23.70;76.00;;;;;;5032375;28;20432;-73
2023/07/02 12:25:23;;;;;;;5.72;2.28;;;23.60;74.50;;;;;;5032910;28;20049;-77
2023/07/02 12:27:49;;;;;;;3.75;1.20;;;23.50;75.30;;;;;;5032779;28;20040;-74
2023/07/02 12:30:18;;;;;;;6.07;1.75;;;23.40;75.90;;;;;;5015741;28;20046;-74
2023/07/02 12:32:44;;;;;;;7.07;2.10;;;23.30;75.80;;;;;;5014087;28;20168;-74
2023/07/02 12:35:10;;;;;;;5.85;2.05;;;23.10;75.80;;;;;;5033250;28;20644;-73
2023/07/02 12:37:43;;;;;;;4.07;1.50;;;22.90;76.50;;;;;;5014452;28;20025;-72
2023/07/02 12:40:09;;;;;;;3.38;1.42;;;22.90;75.60;;;;;;5033022;28;20049;-74